createdAt,value
2023-10-31T04:55:34.569Z,100.00
2023-10-31T04:58:37.032Z,100.00
2023-10-31T05:01:39.163Z,100.00
2023-10-31T05:04:41.985Z,100.00
2023-10-31T05:07:44.434Z,100.00
2023-10-31T05:10:48.613Z,100.00
2023-10-31T05:13:51.579Z,100.00
2023-10-31T05:16:54.044Z,100.00
2023-10-31T05:19:56.293Z,100.00
2023-10-31T05:22:58.786Z,100.00
2023-10-31T05:26:00.984Z,100.00
2023-10-31T05:29:03.476Z,100.00
2023-10-31T05:32:05.961Z,100.00
2023-10-31T05:35:08.746Z,100.00
2023-10-31T05:38:11.061Z,100.00
2023-10-31T05:41:13.668Z,100.00
2023-10-31T05:44:16.159Z,100.00
2023-10-31T05:47:18.639Z,100.00
2023-10-31T05:50:20.833Z,100.00
2023-10-31T05:53:23.278Z,100.00
2023-10-31T05:56:25.712Z,100.00
2023-10-31T05:59:28.344Z,100.00
2023-10-31T06:02:31.066Z,100.00
2023-10-31T06:05:33.514Z,100.00
2023-10-31T06:08:35.817Z,100.00
2023-10-31T06:11:43.488Z,100.00
2023-10-31T06:14:45.620Z,100.00
2023-10-31T06:17:48.491Z,100.00
2023-10-31T06:20:50.741Z,100.00
2023-10-31T06:23:53.341Z,100.00
2023-10-31T06:26:55.488Z,100.00
2023-10-31T06:30:11.358Z,100.00
2023-10-31T06:33:20.050Z,100.00
2023-10-31T06:36:22.501Z,100.00
2023-10-31T06:39:24.778Z,100.00
2023-10-31T06:42:27.843Z,100.00
2023-10-31T06:45:30.067Z,100.00
2023-10-31T06:48:32.605Z,100.00
2023-10-31T06:51:34.834Z,100.00
2023-10-31T06:54:37.308Z,100.00
2023-10-31T06:57:39.526Z,100.00
2023-10-31T07:00:41.970Z,100.00
2023-10-31T07:03:44.252Z,100.00
2023-10-31T07:06:49.567Z,100.00
2023-10-31T07:09:51.800Z,100.00
2023-10-31T07:12:54.257Z,100.00
2023-10-31T07:15:56.485Z,100.00
2023-10-31T07:18:58.935Z,100.00
2023-10-31T07:22:01.131Z,100.00
2023-10-31T07:25:04.590Z,100.00
2023-10-31T07:28:06.842Z,100.00
2023-10-31T07:31:09.259Z,100.00
2023-10-31T07:34:13.149Z,100.00
2023-10-31T07:37:15.628Z,100.00
2023-10-31T07:40:18.016Z,100.00
2023-10-31T07:43:20.457Z,100.00
2023-10-31T07:46:24.264Z,100.00
2023-10-31T07:49:26.766Z,100.00
2023-10-31T07:52:28.932Z,100.00
2023-10-31T07:55:31.502Z,100.00
2023-10-31T07:58:33.661Z,100.00
2023-10-31T08:01:36.426Z,100.00
2023-10-31T08:04:38.880Z,100.00
2023-10-31T08:07:41.098Z,100.00
2023-10-31T08:10:43.586Z,100.00
2023-10-31T08:13:45.929Z,100.00
2023-10-31T08:16:48.406Z,100.00
2023-10-31T08:19:50.641Z,100.00
2023-10-31T08:22:53.091Z,100.00
2023-10-31T08:25:55.383Z,100.00
2023-10-31T08:28:58.006Z,100.00
2023-10-31T08:32:00.448Z,100.00
2023-10-31T08:35:03.108Z,100.00
2023-10-31T08:38:05.375Z,100.00
2023-10-31T08:41:07.831Z,100.00
2023-10-31T08:44:10.039Z,100.00
2023-10-31T08:47:13.403Z,100.00
2023-10-31T08:50:16.024Z,100.00
2023-10-31T08:53:20.254Z,100.00
2023-10-31T08:56:22.557Z,100.00
2023-10-31T08:59:25.463Z,100.00
2023-10-31T09:02:27.955Z,100.00
2023-10-31T09:05:30.381Z,100.00
2023-10-31T09:08:32.697Z,100.00
2023-10-31T09:11:35.119Z,100.00
2023-10-31T09:14:38.040Z,98.97
2023-10-31T09:17:40.458Z,90.89
2023-10-31T09:20:42.673Z,92.40
2023-10-31T09:23:45.052Z,92.68
2023-10-31T09:26:47.193Z,90.88
2023-10-31T09:29:49.632Z,91.71
2023-10-31T09:32:52.457Z,92.88
2023-10-31T09:35:55.002Z,91.02
2023-10-31T09:38:57.209Z,92.61
2023-10-31T09:41:59.739Z,91.12
2023-10-31T09:45:02.337Z,88.23
2023-10-31T09:48:05.648Z,87.97
2023-10-31T09:51:08.527Z,85.66
2023-10-31T09:54:14.336Z,84.20
2023-10-31T09:57:18.595Z,86.79
2023-10-31T10:00:21.127Z,87.95
2023-10-31T10:03:24.651Z,87.13
2023-10-31T10:06:27.983Z,85.32
2023-10-31T10:09:32.033Z,85.44
2023-10-31T10:12:34.703Z,85.32
2023-10-31T10:15:50.160Z,83.56
2023-10-31T10:18:52.354Z,87.41
2023-10-31T10:21:57.612Z,83.14
2023-10-31T10:24:59.746Z,80.48
2023-10-31T10:28:03.797Z,82.62
2023-10-31T10:31:07.493Z,79.33
2023-10-31T10:34:10.862Z,81.51
2023-10-31T10:37:14.197Z,81.20
2023-10-31T10:40:17.737Z,81.82
2023-10-31T10:43:23.662Z,81.94
2023-10-31T10:46:27.524Z,82.41
2023-10-31T10:49:33.372Z,81.59
2023-10-31T10:53:19.567Z,79.89
2023-10-31T10:56:45.978Z,73.25
2023-10-31T10:59:52.460Z,75.99
2023-10-31T11:02:55.299Z,75.22
2023-10-31T11:05:58.732Z,73.80
2023-10-31T11:09:01.650Z,73.51
2023-10-31T11:12:04.873Z,73.86
2023-10-31T11:15:08.229Z,77.67
2023-10-31T11:18:11.961Z,70.16
2023-10-31T11:21:14.178Z,72.28
2023-10-31T11:24:16.569Z,75.81
2023-10-31T11:27:19.568Z,77.99
2023-10-31T11:30:36.089Z,79.09
2023-10-31T11:33:41.320Z,77.95
2023-10-31T11:36:43.904Z,71.31
2023-10-31T11:40:15.861Z,70.18
2023-10-31T11:43:18.372Z,71.50
2023-10-31T11:46:22.190Z,73.89
2023-10-31T11:49:47.012Z,75.95
2023-10-31T11:53:09.001Z,79.66
2023-10-31T11:56:15.357Z,79.74
2023-10-31T11:59:17.669Z,76.56
2023-10-31T12:02:21.901Z,78.20
2023-10-31T12:05:24.490Z,80.58
2023-10-31T12:08:31.519Z,83.54
2023-10-31T12:11:45.507Z,83.18
2023-10-31T12:14:47.669Z,84.99
2023-10-31T12:17:50.499Z,84.66
2023-10-31T12:20:52.817Z,90.60
2023-10-31T12:24:04.167Z,85.29
2023-10-31T12:27:06.422Z,92.10
2023-10-31T12:30:09.483Z,100.00
2023-10-31T12:33:11.704Z,100.00
2023-10-31T12:36:14.261Z,100.00
2023-10-31T12:39:18.134Z,100.00
2023-10-31T12:42:21.708Z,100.00
2023-10-31T12:45:24.025Z,100.00
2023-10-31T12:48:27.402Z,100.00
2023-10-31T12:51:29.773Z,100.00
2023-10-31T12:54:36.619Z,100.00
2023-10-31T12:57:38.957Z,100.00
2023-10-31T13:00:43.149Z,100.00
2023-10-31T13:03:55.192Z,100.00
2023-10-31T13:07:03.385Z,100.00
2023-10-31T13:10:10.937Z,100.00
2023-10-31T13:13:13.948Z,100.00
2023-10-31T13:16:16.330Z,100.00
2023-10-31T13:19:18.877Z,100.00
2023-10-31T13:22:21.987Z,100.00
2023-10-31T13:25:24.554Z,100.00
2023-10-31T13:28:26.839Z,100.00
2023-10-31T13:31:29.256Z,100.00
2023-10-31T13:34:33.985Z,100.00
2023-10-31T13:37:37.417Z,100.00
2023-10-31T13:40:40.806Z,100.00
2023-10-31T13:43:43.233Z,100.00
2023-10-31T13:46:45.411Z,100.00
2023-10-31T13:49:48.408Z,100.00
2023-10-31T13:52:50.606Z,100.00
2023-10-31T13:55:53.042Z,100.00
2023-10-31T13:58:55.185Z,100.00
2023-10-31T14:01:57.585Z,100.00
2023-10-31T14:05:00.392Z,100.00
2023-10-31T14:08:03.422Z,100.00
2023-10-31T14:11:05.942Z,100.00
2023-10-31T14:14:10.468Z,100.00
2023-10-31T14:17:13.132Z,100.00
2023-10-31T14:20:15.319Z,100.00
2023-10-31T14:23:17.752Z,100.00
2023-10-31T14:26:24.641Z,100.00
2023-10-31T14:29:27.108Z,100.00
2023-10-31T14:32:29.397Z,100.00
2023-10-31T14:35:32.094Z,100.00
2023-10-31T14:38:34.331Z,100.00
2023-10-31T14:41:36.978Z,100.00
2023-10-31T14:44:39.235Z,100.00
2023-10-31T14:47:41.713Z,100.00
2023-10-31T14:50:43.939Z,100.00
2023-10-31T14:53:49.469Z,100.00
2023-10-31T14:56:52.210Z,100.00
2023-10-31T14:59:54.644Z,100.00
2023-10-31T15:02:57.881Z,100.00
2023-10-31T15:06:00.463Z,100.00
2023-10-31T15:09:02.691Z,100.00
2023-10-31T15:12:05.407Z,100.00
2023-10-31T15:15:07.779Z,100.00
2023-10-31T15:18:10.509Z,100.00
2023-10-31T15:21:13.155Z,100.00
2023-10-31T15:24:15.657Z,100.00
2023-10-31T15:27:18.846Z,100.00
2023-10-31T15:30:21.592Z,100.00
2023-10-31T15:33:23.789Z,100.00
2023-10-31T15:36:26.345Z,100.00
2023-10-31T15:39:28.497Z,100.00
2023-10-31T15:42:31.407Z,100.00
2023-10-31T15:45:41.131Z,100.00
2023-10-31T15:48:43.772Z,100.00
2023-10-31T15:51:46.053Z,100.00
2023-10-31T15:54:48.522Z,100.00
2023-10-31T15:57:50.669Z,100.00
2023-10-31T16:00:53.561Z,100.00
2023-10-31T16:03:56.065Z,100.00
2023-10-31T16:06:58.395Z,100.00
2023-10-31T16:10:00.924Z,100.00
